createdAt,value
2023-02-03T00:01:53.833Z,102986.54
2023-02-03T00:04:21.808Z,102989.38
2023-02-03T00:06:49.627Z,102992.81
2023-02-03T00:09:17.640Z,102989.12
2023-02-03T00:11:45.540Z,102989.12
2023-02-03T00:14:13.398Z,102977.77
2023-02-03T00:16:41.267Z,102971.50
2023-02-03T00:19:09.061Z,102978.30
2023-02-03T00:21:36.879Z,102968.95
2023-02-03T00:24:04.629Z,102970.35
2023-02-03T00:26:32.577Z,102971.20
2023-02-03T00:29:01.280Z,102979.09
2023-02-03T00:31:29.219Z,102990.95
2023-02-03T00:33:57.701Z,102989.25
2023-02-03T00:36:26.072Z,103009.62
2023-02-03T00:38:54.228Z,103024.95
2023-02-03T00:41:22.213Z,103029.14
2023-02-03T00:43:50.444Z,103031.46
2023-02-03T00:46:18.258Z,103027.18
2023-02-03T00:48:46.112Z,103031.40
2023-02-03T00:51:14.007Z,103037.05
2023-02-03T00:53:41.815Z,103034.50
2023-02-03T00:56:13.722Z,103033.66
2023-02-03T00:58:41.952Z,103032.77
2023-02-03T01:01:09.892Z,103044.38
2023-02-03T01:03:37.730Z,103038.95
2023-02-03T01:06:19.866Z,103038.95
2023-02-03T01:08:47.779Z,103036.66
2023-02-03T01:11:18.463Z,103037.25
2023-02-03T01:13:46.483Z,103039.48
2023-02-03T01:16:15.816Z,103047.13
2023-02-03T01:18:43.801Z,103051.70
2023-02-03T01:21:17.268Z,103048.59
2023-02-03T01:23:45.211Z,103042.68
2023-02-03T01:26:14.928Z,103059.16
2023-02-03T01:28:42.681Z,103055.43
2023-02-03T01:31:11.547Z,103045.85
2023-02-03T01:33:41.994Z,103029.92
2023-02-03T01:36:10.553Z,103025.71
2023-02-03T01:38:38.445Z,103024.86
2023-02-03T01:41:07.582Z,103027.70
2023-02-03T01:43:40.163Z,103032.25
2023-02-03T01:46:26.779Z,103030.88
2023-02-03T01:49:03.033Z,103036.83
2023-02-03T01:51:30.822Z,103050.39
2023-02-03T01:53:58.648Z,103064.55
2023-02-03T01:56:27.196Z,103072.20
2023-02-03T01:58:55.073Z,103083.02
2023-02-03T02:01:22.882Z,103083.02
2023-02-03T02:03:55.007Z,103079.07
2023-02-03T02:06:22.760Z,103062.03
2023-02-03T02:08:52.033Z,103071.94
2023-02-03T02:11:21.474Z,103074.75
2023-02-03T02:13:50.038Z,103063.18
2023-02-03T02:16:23.912Z,103056.64
2023-02-03T02:19:00.813Z,103055.52
2023-02-03T02:21:51.279Z,103060.34
2023-02-03T02:24:47.027Z,103054.35
2023-02-03T02:27:17.251Z,103050.91
2023-02-03T02:30:35.629Z,103025.67
2023-02-03T02:33:44.678Z,103021.95
2023-02-03T02:36:30.598Z,103010.27
2023-02-03T02:39:10.148Z,103010.90
2023-02-03T02:41:46.002Z,103014.59
2023-02-03T02:44:25.846Z,103019.10
2023-02-03T02:46:58.481Z,103016.29
2023-02-03T02:49:44.925Z,103008.05
2023-02-03T02:52:12.697Z,103005.20
2023-02-03T02:54:41.853Z,103015.12
2023-02-03T02:57:11.401Z,103006.88
2023-02-03T02:59:39.174Z,103008.84
2023-02-03T03:02:07.026Z,103013.97
2023-02-03T03:04:34.976Z,103004.91
2023-02-03T03:07:08.369Z,103013.12
2023-02-03T03:10:03.696Z,103010.27
2023-02-03T03:12:33.509Z,103013.12
2023-02-03T03:15:03.823Z,103010.57
2023-02-03T03:17:33.799Z,103011.42
2023-02-03T03:20:03.815Z,103007.98
2023-02-03T03:22:36.449Z,103002.07
2023-02-03T03:25:23.428Z,102998.38
2023-02-03T03:27:53.644Z,102987.88
2023-02-03T03:30:30.289Z,102971.98
2023-02-03T03:32:59.595Z,102975.42
2023-02-03T03:35:32.438Z,102976.56
2023-02-03T03:38:03.056Z,102984.22
2023-02-03T03:40:36.209Z,102977.09
2023-02-03T03:43:07.592Z,102996.38
2023-02-03T03:45:58.806Z,102996.38
2023-02-03T03:48:35.947Z,102971.14
2023-02-03T03:51:06.101Z,102980.23
2023-02-03T03:53:34.092Z,102970.88
2023-02-03T03:56:02.229Z,102958.42
2023-02-03T03:58:32.168Z,102949.91
2023-02-03T04:01:02.748Z,102928.60
2023-02-03T04:03:49.482Z,102935.66
2023-02-03T04:06:17.243Z,102939.91
2023-02-03T04:08:45.017Z,102936.71
2023-02-03T04:11:12.778Z,102938.05
2023-02-03T04:13:40.547Z,102943.41
2023-02-03T04:16:08.424Z,102953.80
2023-02-03T04:18:36.235Z,102968.72
2023-02-03T04:21:03.996Z,102953.71
2023-02-03T04:23:31.733Z,102967.28
2023-02-03T04:26:02.291Z,102962.51
2023-02-03T04:28:30.062Z,102950.27
2023-02-03T04:31:01.803Z,102940.60
2023-02-03T04:33:29.644Z,102929.02
2023-02-03T04:35:57.488Z,102938.93
2023-02-03T04:38:25.306Z,102939.84
2023-02-03T04:40:53.104Z,102952.34
2023-02-03T04:43:20.896Z,102987.45
2023-02-03T04:45:48.729Z,102983.76
2023-02-03T04:48:16.548Z,102988.92
2023-02-03T04:50:44.296Z,102999.13
2023-02-03T04:53:12.735Z,103019.56
2023-02-03T04:55:41.516Z,103044.80
2023-02-03T04:58:10.217Z,103042.28
2023-02-03T05:00:38.146Z,103017.63
2023-02-03T05:03:06.014Z,102994.45
2023-02-03T05:05:33.713Z,103002.36
2023-02-03T05:08:01.605Z,103026.75
2023-02-03T05:10:29.646Z,103025.61
2023-02-03T05:12:57.578Z,103039.80
2023-02-03T05:15:25.379Z,103037.55
2023-02-03T05:17:54.204Z,103027.93
2023-02-03T05:20:22.147Z,103029.66
2023-02-03T05:22:49.987Z,103036.20
2023-02-03T05:25:17.894Z,103046.66
2023-02-03T05:27:45.830Z,103044.67
2023-02-03T05:30:13.954Z,103047.78
2023-02-03T05:32:41.774Z,103048.37
2023-02-03T05:35:09.694Z,103051.83
2023-02-03T05:37:37.516Z,103052.39
2023-02-03T05:40:26.742Z,103064.32
2023-02-03T05:42:54.821Z,103073.34
2023-02-03T05:45:23.073Z,103063.73
2023-02-03T05:47:50.790Z,103051.31
2023-02-03T05:50:18.604Z,103040.20
2023-02-03T05:52:46.365Z,103025.97
2023-02-03T05:55:14.095Z,103014.88
2023-02-03T05:57:41.909Z,103033.59
2023-02-03T06:00:10.303Z,103023.32
2023-02-03T06:02:38.066Z,103023.59
2023-02-03T06:05:06.034Z,103006.84
2023-02-03T06:07:33.923Z,103009.66
2023-02-03T06:10:01.715Z,103005.41
2023-02-03T06:12:29.642Z,103011.84
2023-02-03T06:14:57.511Z,103021.46
2023-02-03T06:17:25.369Z,103042.74
2023-02-03T06:19:53.230Z,103037.09
2023-02-03T06:22:20.975Z,103044.48
2023-02-03T06:24:49.621Z,103043.00
2023-02-03T06:27:17.394Z,103033.36
2023-02-03T06:29:45.204Z,103036.56
2023-02-03T06:32:13.201Z,103031.23
2023-02-03T06:34:41.046Z,103030.09
2023-02-03T06:37:08.964Z,103045.98
2023-02-03T06:39:36.763Z,103054.84
2023-02-03T06:42:04.554Z,103057.39
2023-02-03T06:44:32.495Z,103068.12
2023-02-03T06:47:00.343Z,103089.17
2023-02-03T06:49:28.136Z,103086.36
2023-02-03T06:51:56.055Z,103074.16
2023-02-03T06:54:23.989Z,103080.15
2023-02-03T06:56:51.759Z,103070.80
2023-02-03T06:59:19.743Z,103074.49
2023-02-03T07:01:47.653Z,103068.84
2023-02-03T07:04:15.534Z,103071.38
2023-02-03T07:06:43.413Z,103072.76
2023-02-03T07:09:11.366Z,103067.95
2023-02-03T07:11:39.263Z,103071.84
2023-02-03T07:14:07.145Z,103060.10
2023-02-03T07:16:35.610Z,103048.66
2023-02-03T07:19:03.465Z,103062.06
2023-02-03T07:21:31.541Z,103046.34
2023-02-03T07:23:59.443Z,103038.03
2023-02-03T07:26:27.777Z,103036.50
2023-02-03T07:28:55.784Z,103046.90
2023-02-03T07:31:24.137Z,103039.57
2023-02-03T07:33:52.180Z,103037.02
2023-02-03T07:36:20.174Z,103037.71
2023-02-03T07:38:48.015Z,103028.78
2023-02-03T07:41:19.179Z,103033.85
2023-02-03T07:43:47.047Z,103039.34
2023-02-03T07:46:14.815Z,103041.73
2023-02-03T07:48:42.645Z,103052.39
2023-02-03T07:51:10.428Z,103073.80
2023-02-03T07:53:38.396Z,103078.61
2023-02-03T07:56:06.758Z,103060.50
2023-02-03T07:58:34.736Z,103051.99
2023-02-03T08:01:02.555Z,103062.98
2023-02-03T08:03:30.396Z,103025.35
2023-02-03T08:05:58.212Z,103021.13
2023-02-03T08:08:25.980Z,103032.80
2023-02-03T08:10:55.952Z,103040.88
2023-02-03T08:13:23.800Z,103026.46
2023-02-03T08:15:51.738Z,103027.84
2023-02-03T08:18:19.500Z,103007.17
2023-02-03T08:20:50.315Z,103021.33
2023-02-03T08:23:18.106Z,103012.89
2023-02-03T08:25:46.135Z,103003.80
2023-02-03T08:28:14.176Z,103015.48
2023-02-03T08:30:42.135Z,103012.37
2023-02-03T08:33:09.960Z,103018.22
2023-02-03T08:35:38.123Z,103014.27
2023-02-03T08:38:10.683Z,103025.58
2023-02-03T08:40:38.482Z,103032.05
2023-02-03T08:43:06.263Z,103057.00
2023-02-03T08:45:34.475Z,103034.73
2023-02-03T08:48:02.535Z,103037.94
2023-02-03T08:50:30.848Z,103057.81
2023-02-03T08:52:59.001Z,103053.63
2023-02-03T08:55:26.877Z,103067.27
2023-02-03T08:57:56.198Z,103059.84
2023-02-03T09:00:24.549Z,103055.07
2023-02-03T09:02:52.558Z,103032.84
2023-02-03T09:05:20.501Z,103034.80
2023-02-03T09:07:48.511Z,103027.18
2023-02-03T09:10:16.985Z,103024.62
2023-02-03T09:12:44.921Z,103029.47
2023-02-03T09:15:12.843Z,103028.48
2023-02-03T09:17:40.718Z,103027.34
2023-02-03T09:20:09.181Z,103013.80
2023-02-03T09:22:37.101Z,102994.58
2023-02-03T09:25:08.249Z,103006.91
2023-02-03T09:27:36.140Z,103001.97
2023-02-03T09:30:08.823Z,103013.84
2023-02-03T09:32:36.668Z,103035.52
2023-02-03T09:35:04.867Z,103056.57
2023-02-03T09:37:33.136Z,103043.23
2023-02-03T09:40:01.230Z,103054.22
2023-02-03T09:42:47.088Z,103062.55
2023-02-03T09:45:32.078Z,103067.16
2023-02-03T09:48:04.706Z,103060.70
2023-02-03T09:50:34.532Z,103046.17
2023-02-03T09:53:28.895Z,103040.78
2023-02-03T09:55:56.837Z,103042.22
2023-02-03T09:58:24.795Z,103062.13
2023-02-03T10:01:03.288Z,103045.00
2023-02-03T10:03:41.981Z,103036.37
2023-02-03T10:06:29.386Z,103050.06
2023-02-03T10:09:03.080Z,103058.38
2023-02-03T10:11:51.690Z,103061.22
2023-02-03T10:14:32.512Z,103058.60
2023-02-03T10:17:13.487Z,103062.88
2023-02-03T10:19:58.227Z,103038.62
2023-02-03T10:22:29.339Z,103030.16
2023-02-03T10:25:26.150Z,103029.34
2023-02-03T10:27:56.202Z,103046.77
2023-02-03T10:30:29.124Z,103035.35
2023-02-03T10:33:13.129Z,103042.52
2023-02-03T10:35:48.226Z,103035.68
2023-02-03T10:38:21.019Z,103046.17
2023-02-03T10:40:48.944Z,103056.77
2023-02-03T10:43:35.456Z,103038.23
2023-02-03T10:46:03.252Z,103031.92
2023-02-03T10:48:31.214Z,103015.64
2023-02-03T10:50:58.991Z,103013.58
2023-02-03T10:53:29.491Z,103014.98
2023-02-03T10:56:14.403Z,103013.61
2023-02-03T10:58:51.682Z,103018.77
2023-02-03T11:01:21.793Z,102989.71
2023-02-03T11:04:00.138Z,102994.62
2023-02-03T11:06:28.281Z,102986.05
2023-02-03T11:08:56.140Z,102982.65
2023-02-03T11:11:27.791Z,102977.55
2023-02-03T11:14:12.432Z,102976.40
2023-02-03T11:16:41.647Z,102975.55
2023-02-03T11:19:20.507Z,102978.69
2023-02-03T11:21:54.384Z,102982.09
2023-02-03T11:24:29.879Z,102982.68
2023-02-03T11:26:59.821Z,102967.87
2023-02-03T11:29:31.971Z,102989.77
2023-02-03T11:32:01.820Z,102983.23
2023-02-03T11:34:34.519Z,102975.26
2023-02-03T11:37:28.524Z,102974.11
2023-02-03T11:40:08.855Z,102977.55
2023-02-03T11:42:38.541Z,102974.67
2023-02-03T11:45:35.764Z,102982.65
2023-02-03T11:48:22.539Z,102978.95
2023-02-03T11:50:51.718Z,102970.71
2023-02-03T11:53:57.913Z,102971.56
2023-02-03T11:56:50.084Z,102979.25
2023-02-03T11:59:47.230Z,102976.40
2023-02-03T12:02:39.132Z,102967.84
2023-02-03T12:05:33.060Z,102967.28
2023-02-03T12:08:09.523Z,102961.59
2023-02-03T12:10:57.767Z,102967.84
2023-02-03T12:13:48.944Z,102985.49
2023-02-03T12:16:28.953Z,102994.05
2023-02-03T12:19:16.961Z,102980.39
2023-02-03T12:21:44.595Z,102954.76
2023-02-03T12:24:31.226Z,102936.80
2023-02-03T12:27:23.557Z,102920.59
2023-02-03T12:29:58.211Z,102920.27
2023-02-03T12:32:39.645Z,102914.84
2023-02-03T12:35:28.068Z,102908.55
2023-02-03T12:38:13.119Z,102909.73
2023-02-03T12:40:47.245Z,102905.71
2023-02-03T12:43:33.401Z,102904.27
2023-02-03T12:46:25.300Z,102905.16
2023-02-03T12:49:02.134Z,102904.60
2023-02-03T12:51:44.057Z,102910.29
2023-02-03T12:54:38.992Z,102901.79
2023-02-03T12:57:18.723Z,102895.77
2023-02-03T13:00:14.297Z,102894.34
2023-02-03T13:03:12.006Z,102896.03
2023-02-03T13:05:58.656Z,102885.80
2023-02-03T13:08:40.671Z,102874.98
2023-02-03T13:11:21.103Z,102868.44
2023-02-03T13:13:51.487Z,102873.54
2023-02-03T13:16:21.831Z,102869.59
2023-02-03T13:18:53.582Z,102845.65
2023-02-03T13:21:21.413Z,102860.46
2023-02-03T13:23:49.654Z,102868.44
2023-02-03T13:26:29.196Z,102887.50
2023-02-03T13:29:04.307Z,102892.93
2023-02-03T13:31:44.320Z,102888.05
2023-02-03T13:34:41.255Z,102886.06
2023-02-03T13:37:48.598Z,102867.30
2023-02-03T13:40:38.280Z,102880.38
2023-02-03T13:43:07.807Z,102880.11
2023-02-03T13:45:43.350Z,102886.91
2023-02-03T13:48:25.882Z,102896.03
2023-02-03T13:51:06.230Z,102891.78
2023-02-03T13:53:39.107Z,102894.34
2023-02-03T13:56:10.506Z,102884.36
2023-02-03T13:58:41.426Z,102891.49
2023-02-03T14:01:31.730Z,102887.20
2023-02-03T14:03:59.688Z,102883.55
2023-02-03T14:06:40.641Z,102887.50
2023-02-03T14:09:33.027Z,102883.55
2023-02-03T14:12:20.511Z,102882.95
2023-02-03T14:14:51.177Z,102882.95
2023-02-03T14:17:37.093Z,102888.35
2023-02-03T14:20:05.810Z,102902.87
2023-02-03T14:22:33.593Z,102909.99
2023-02-03T14:25:06.167Z,102902.31
2023-02-03T14:27:36.983Z,102908.27
2023-02-03T14:30:15.308Z,102894.34
2023-02-03T14:32:53.198Z,102894.59
2023-02-03T14:35:23.053Z,102906.30
2023-02-03T14:37:58.776Z,102903.16
2023-02-03T14:40:58.390Z,102904.57
2023-02-03T14:43:40.646Z,102885.48
2023-02-03T14:46:27.719Z,102864.16
2023-02-03T14:49:20.402Z,102854.48
2023-02-03T14:52:02.168Z,102851.63
2023-02-03T14:54:35.879Z,102854.74
2023-02-03T14:57:46.390Z,102857.84
2023-02-03T15:00:24.800Z,102847.64
2023-02-03T15:03:08.815Z,102853.59
2023-02-03T15:05:41.144Z,102868.41
2023-02-03T15:08:30.646Z,102877.20
2023-02-03T15:10:58.572Z,102874.36
2023-02-03T15:13:32.846Z,102869.81
2023-02-03T15:16:05.728Z,102855.85
2023-02-03T15:18:37.452Z,102863.53
2023-02-03T15:21:05.554Z,102867.55
2023-02-03T15:23:44.284Z,102849.61
2023-02-03T15:26:17.262Z,102847.61
2023-02-03T15:28:45.087Z,102839.93
2023-02-03T15:31:21.608Z,102846.47
2023-02-03T15:33:51.090Z,102845.03
2023-02-03T15:36:28.113Z,102855.52
2023-02-03T15:38:59.745Z,102870.04
2023-02-03T15:41:27.654Z,102892.80
2023-02-03T15:43:57.687Z,102898.75
2023-02-03T15:46:53.018Z,102898.20
2023-02-03T15:49:22.413Z,102890.21
2023-02-03T15:51:52.682Z,102895.61
2023-02-03T15:54:24.137Z,102889.07
2023-02-03T15:56:58.135Z,102897.60
2023-02-03T15:59:30.416Z,102902.45
2023-02-03T16:01:58.466Z,102892.21
2023-02-03T16:04:26.361Z,102900.74
2023-02-03T16:06:55.046Z,102889.33
2023-02-03T16:09:49.182Z,102875.66
2023-02-03T16:12:18.890Z,102894.17
2023-02-03T16:14:47.472Z,102893.59
2023-02-03T16:17:22.689Z,102891.88
2023-02-03T16:19:52.531Z,102880.21
2023-02-03T16:22:32.274Z,102878.48
2023-02-03T16:25:16.709Z,102881.62
2023-02-03T16:28:16.006Z,102876.81
2023-02-03T16:31:22.288Z,102877.66
2023-02-03T16:34:09.768Z,102869.12
2023-02-03T16:37:00.695Z,102868.54
2023-02-03T16:39:47.055Z,102862.29
2023-02-03T16:42:38.563Z,102873.38
2023-02-03T16:45:35.007Z,102871.38
2023-02-03T16:48:22.186Z,102872.52
2023-02-03T16:50:59.308Z,102867.98
2023-02-03T16:53:33.792Z,102877.63
2023-02-03T16:56:03.176Z,102875.93
2023-02-03T16:58:31.162Z,102882.73
2023-02-03T17:01:00.409Z,102885.27
2023-02-03T17:03:28.766Z,102877.07
2023-02-03T17:05:57.105Z,102883.84
2023-02-03T17:08:26.010Z,102874.48
2023-02-03T17:10:53.860Z,102879.06
2023-02-03T17:13:22.966Z,102881.88
2023-02-03T17:15:53.726Z,102884.98
2023-02-03T17:18:21.671Z,102906.89
2023-02-03T17:20:49.667Z,102905.74
2023-02-03T17:23:17.802Z,102898.36
2023-02-03T17:25:46.697Z,102917.13
2023-02-03T17:28:15.076Z,102925.92
2023-02-03T17:30:43.142Z,102908.03
2023-02-03T17:33:13.618Z,102908.88
2023-02-03T17:35:42.686Z,102892.93
2023-02-03T17:38:11.394Z,102902.05
2023-02-03T17:54:36.703Z,102870.79
2023-02-03T17:57:04.601Z,102854.02
2023-02-03T17:59:32.427Z,102849.15
2023-02-03T18:02:00.254Z,102844.05
2023-02-03T18:04:28.229Z,102840.65
2023-02-03T18:06:56.111Z,102827.83
2023-02-03T18:09:25.020Z,102839.21
2023-02-03T18:11:52.864Z,102848.00
2023-02-03T18:14:20.662Z,102849.45
2023-02-03T18:16:48.572Z,102859.68
2023-02-03T18:19:16.575Z,102858.83
2023-02-03T18:21:44.781Z,102871.61
2023-02-03T18:24:13.557Z,102880.70
2023-02-03T18:26:52.632Z,102867.36
2023-02-03T18:29:20.640Z,102879.82
2023-02-03T18:31:49.243Z,102883.25
2023-02-03T18:34:17.724Z,102887.80
2023-02-03T18:36:46.060Z,102900.32
2023-02-03T18:39:15.775Z,102902.02
2023-02-03T18:41:43.653Z,102901.73
2023-02-03T18:44:11.634Z,102904.30
2023-02-03T18:46:39.527Z,102917.91
2023-02-03T18:49:08.914Z,102916.77
2023-02-03T18:51:36.775Z,102925.04
2023-02-03T18:54:05.064Z,102921.90
2023-02-03T18:56:36.308Z,102920.79
2023-02-03T18:59:10.064Z,102924.48
2023-02-03T19:01:38.307Z,102926.48
2023-02-03T19:04:06.229Z,102944.10
2023-02-03T19:06:34.736Z,102938.12
2023-02-03T19:09:03.375Z,102939.84
2023-02-03T19:11:31.383Z,102935.86
2023-02-03T19:13:59.117Z,102933.87
2023-02-03T19:16:26.987Z,102936.71
2023-02-03T19:18:54.844Z,102935.01
2023-02-03T19:21:23.112Z,102921.63
2023-02-03T19:23:50.943Z,102931.02
2023-02-03T19:26:18.842Z,102933.57
2023-02-03T19:28:46.828Z,102953.19
2023-02-03T19:31:16.263Z,102957.77
2023-02-03T19:33:44.290Z,102939.26
2023-02-03T19:36:12.422Z,102954.07
2023-02-03T19:38:40.218Z,102951.23
2023-02-03T19:41:09.305Z,102946.38
2023-02-03T19:43:40.645Z,102936.12
2023-02-03T19:46:09.332Z,102937.85
2023-02-03T19:48:37.315Z,102942.95
2023-02-03T19:51:05.606Z,102935.56
2023-02-03T19:53:34.224Z,102942.95
2023-02-03T19:56:04.971Z,102935.27
2023-02-03T19:58:32.933Z,102911.70
2023-02-03T20:01:00.639Z,102924.45
2023-02-03T20:03:28.583Z,102924.19
2023-02-03T20:05:56.525Z,102930.98
2023-02-03T20:08:24.357Z,102917.65
2023-02-03T20:10:53.058Z,102926.18
2023-02-03T20:13:25.857Z,102921.60
2023-02-03T20:15:53.696Z,102909.96
2023-02-03T20:18:21.664Z,102915.36
2023-02-03T20:20:57.424Z,102915.03
2023-02-03T20:23:25.493Z,102907.94
2023-02-03T20:25:56.658Z,102907.05
2023-02-03T20:28:25.593Z,102901.95
2023-02-03T20:30:54.128Z,102921.27
2023-02-03T20:33:22.182Z,102902.48
2023-02-03T20:35:50.272Z,102897.70
2023-02-03T20:38:18.165Z,102894.86
2023-02-03T20:40:47.128Z,102881.19
2023-02-03T20:43:24.532Z,102880.63
2023-02-03T20:45:54.374Z,102867.78
2023-02-03T20:48:26.801Z,102882.30
2023-02-03T20:50:54.783Z,102904.14
2023-02-03T20:53:24.096Z,102884.82
2023-02-03T20:55:52.048Z,102889.62
2023-02-03T20:58:22.281Z,102913.82
2023-02-03T21:00:50.674Z,102898.45
2023-02-03T21:03:37.977Z,102899.04
2023-02-03T21:06:19.341Z,102906.73
2023-02-03T21:08:47.660Z,102924.91
2023-02-03T21:11:22.163Z,102929.45
2023-02-03T21:13:50.980Z,102932.00
2023-02-03T21:16:22.765Z,102921.51
2023-02-03T21:18:56.021Z,102925.76
2023-02-03T21:21:41.397Z,102933.99
2023-02-03T21:24:18.402Z,102929.16
2023-02-03T21:26:46.435Z,102931.15
2023-02-03T21:29:21.015Z,102929.71
2023-02-03T21:31:49.065Z,102907.87
2023-02-03T21:34:32.654Z,102905.29
2023-02-03T21:37:08.445Z,102894.47
2023-02-03T21:39:36.367Z,102870.01
2023-02-03T21:42:18.854Z,102887.60
2023-02-03T21:44:46.727Z,102892.70
2023-02-03T21:47:17.977Z,102880.77
2023-02-03T21:49:46.338Z,102883.61
2023-02-03T21:52:14.640Z,102905.48
2023-02-03T21:54:44.395Z,102885.27
2023-02-03T21:57:16.977Z,102893.52
2023-02-03T21:59:51.018Z,102894.37
2023-02-03T22:02:54.612Z,102889.82
2023-02-03T22:05:22.650Z,102889.23
2023-02-03T22:07:51.307Z,102898.32
2023-02-03T22:10:23.925Z,102917.05
2023-02-03T22:12:51.709Z,102909.41
2023-02-03T22:15:19.514Z,102908.85
2023-02-03T22:17:49.350Z,102904.05
2023-02-03T22:20:17.284Z,102914.54
2023-02-03T22:22:45.134Z,102929.62
2023-02-03T22:25:12.975Z,102928.50
2023-02-03T22:27:40.857Z,102929.65
2023-02-03T22:30:13.504Z,102932.49
2023-02-03T22:32:41.330Z,102939.88
2023-02-03T22:35:12.198Z,102933.34
2023-02-03T22:37:40.085Z,102935.37
2023-02-03T22:40:08.241Z,102921.73
2023-02-03T22:42:36.076Z,102925.72
2023-02-03T22:45:04.082Z,102919.18
2023-02-03T22:47:31.908Z,102925.16
2023-02-03T22:49:59.745Z,102927.45
2023-02-03T22:52:27.547Z,102935.92
2023-02-03T22:54:55.401Z,102924.58
2023-02-03T22:57:23.241Z,102923.47
2023-02-03T22:59:51.355Z,102921.73
2023-02-03T23:02:19.288Z,102930.59
2023-02-03T23:04:47.493Z,102935.92
2023-02-03T23:07:15.273Z,102924.87
2023-02-03T23:09:43.146Z,102924.84
2023-02-03T23:12:11.032Z,102918.01
2023-02-03T23:14:38.916Z,102931.87
2023-02-03T23:17:06.830Z,102926.77
2023-02-03T23:19:34.683Z,102930.13
2023-02-03T23:22:02.455Z,102940.63
2023-02-03T23:24:30.220Z,102916.73
2023-02-03T23:26:57.984Z,102922.35
2023-02-03T23:29:25.758Z,102920.95
2023-02-03T23:31:58.246Z,102907.84
2023-02-03T23:34:44.777Z,102939.32
2023-02-03T23:37:12.491Z,102940.11
2023-02-03T23:39:43.331Z,102938.70
2023-02-03T23:42:11.088Z,102937.85
2023-02-03T23:44:38.884Z,102938.96
2023-02-03T23:47:06.663Z,102940.34
2023-02-03T23:49:34.540Z,102952.53
2023-02-03T23:52:02.355Z,102955.02
2023-02-03T23:54:30.334Z,102951.26
2023-02-03T23:56:58.226Z,102977.32
2023-02-03T23:59:26.058Z,102962.51
